Terminal Aerodrome Forecast
Issued by NWS Tuscon, AZ

Home | Current Version | Previous Version | Text Only | Print | Product List | Glossary On
Versions: 1 2 3 4 5 6 7 8 9 10 11 12 13 14 15 16
000
FTUS45 KTWC 172348 AAA
TAFTUS
TAF AMD
KTUS 172348Z 1800/1824 12008KT P6SM VCSH BKN050 OVC070
      TEMPO 1800/1802 2SM RA BKN010
     FM180500 14005KT P6SM SCT080 BKN100
     FM182100 32006KT P6SM SCT100=

USA.gov is the U.S. government's official web portal to all federal, state and local government web resources and services.